sensor_id;sensor_type;location;lat;lon;timestamp;temperature;humidity
21419;DHT22;10870;51.384;10.316;2022-08-03T00:01:18;20.50;99.90
21419;DHT22;10870;51.384;10.316;2022-08-03T00:03:22;20.70;99.90
21419;DHT22;10870;51.384;10.316;2022-08-03T00:05:22;20.50;99.90
21419;DHT22;10870;51.384;10.316;2022-08-03T00:07:23;20.40;99.90
21419;DHT22;10870;51.384;10.316;2022-08-03T00:09:24;20.20;99.90
21419;DHT22;10870;51.384;10.316;2022-08-03T00:11:27;20.50;99.90
21419;DHT22;10870;51.384;10.316;2022-08-03T00:13:28;20.30;1.00
21419;DHT22;10870;51.384;10.316;2022-08-03T00:15:31;20.30;99.90
21419;DHT22;10870;51.384;10.316;2022-08-03T00:17:32;20.30;99.90
21419;DHT22;10870;51.384;10.316;2022-08-03T00:19:33;20.10;99.90
21419;DHT22;10870;51.384;10.316;2022-08-03T00:21:34;20.20;99.90
21419;DHT22;10870;51.384;10.316;2022-08-03T00:23:35;20.20;99.90
21419;DHT22;10870;51.384;10.316;2022-08-03T00:25:36;20.20;1.00
21419;DHT22;10870;51.384;10.316;2022-08-03T00:27:37;20.20;1.00
21419;DHT22;10870;51.384;10.316;2022-08-03T00:29:38;20.20;1.00
21419;DHT22;10870;51.384;10.316;2022-08-03T00:31:39;20.20;1.00
21419;DHT22;10870;51.384;10.316;2022-08-03T00:33:44;20.20;1.00
21419;DHT22;10870;51.384;10.316;2022-08-03T00:35:45;20.20;99.90
21419;DHT22;10870;51.384;10.316;2022-08-03T00:37:46;20.10;99.90
21419;DHT22;10870;51.384;10.316;2022-08-03T00:39:47;20.10;99.90
21419;DHT22;10870;51.384;10.316;2022-08-03T00:41:48;20.10;1.00
21419;DHT22;10870;51.384;10.316;2022-08-03T00:43:48;20.00;1.00
21419;DHT22;10870;51.384;10.316;2022-08-03T00:45:50;20.00;1.00
21419;DHT22;10870;51.384;10.316;2022-08-03T00:47:51;20.00;1.00
21419;DHT22;10870;51.384;10.316;2022-08-03T00:49:52;20.00;1.00
21419;DHT22;10870;51.384;10.316;2022-08-03T00:51:53;20.00;1.00
21419;DHT22;10870;51.384;10.316;2022-08-03T00:53:54;20.00;1.00
21419;DHT22;10870;51.384;10.316;2022-08-03T00:55:55;19.90;1.00
21419;DHT22;10870;51.384;10.316;2022-08-03T00:57:56;19.90;1.00
21419;DHT22;10870;51.384;10.316;2022-08-03T00:59:58;19.90;1.00
21419;DHT22;10870;51.384;10.316;2022-08-03T01:02:00;19.90;1.00
21419;DHT22;10870;51.384;10.316;2022-08-03T01:04:01;19.90;1.00
21419;DHT22;10870;51.384;10.316;2022-08-03T01:08:16;19.90;1.00
21419;DHT22;10870;51.384;10.316;2022-08-03T01:12:49;19.90;1.00
21419;DHT22;10870;51.384;10.316;2022-08-03T01:15:12;19.90;1.00
21419;DHT22;10870;51.384;10.316;2022-08-03T01:17:22;19.80;1.00
21419;DHT22;10870;51.384;10.316;2022-08-03T01:30:08;19.80;1.00
21419;DHT22;10870;51.384;10.316;2022-08-03T01:32:10;19.70;1.00
21419;DHT22;10870;51.384;10.316;2022-08-03T01:34:13;19.70;1.00
21419;DHT22;10870;51.384;10.316;2022-08-03T01:36:15;19.70;1.00
21419;DHT22;10870;51.384;10.316;2022-08-03T01:38:19;19.70;1.00
21419;DHT22;10870;51.384;10.316;2022-08-03T01:40:23;19.70;1.00
21419;DHT22;10870;51.384;10.316;2022-08-03T01:42:24;19.70;1.00
21419;DHT22;10870;51.384;10.316;2022-08-03T01:44:27;19.70;1.00
21419;DHT22;10870;51.384;10.316;2022-08-03T01:46:29;19.60;1.00
21419;DHT22;10870;51.384;10.316;2022-08-03T01:48:31;19.60;1.00
21419;DHT22;10870;51.384;10.316;2022-08-03T01:50:34;19.60;1.00
21419;DHT22;10870;51.384;10.316;2022-08-03T01:52:36;19.60;1.00
21419;DHT22;10870;51.384;10.316;2022-08-03T01:54:40;19.60;1.00
21419;DHT22;10870;51.384;10.316;2022-08-03T01:56:44;19.60;1.00
21419;DHT22;10870;51.384;10.316;2022-08-03T01:58:46;19.60;1.00
21419;DHT22;10870;51.384;10.316;2022-08-03T02:00:48;19.60;1.00
21419;DHT22;10870;51.384;10.316;2022-08-03T02:02:52;19.60;1.00
21419;DHT22;10870;51.384;10.316;2022-08-03T02:04:57;19.50;1.00
21419;DHT22;10870;51.384;10.316;2022-08-03T02:07:02;19.50;1.00
21419;DHT22;10870;51.384;10.316;2022-08-03T02:09:03;19.50;1.00
21419;DHT22;10870;51.384;10.316;2022-08-03T02:11:05;19.50;1.00
21419;DHT22;10870;51.384;10.316;2022-08-03T02:13:08;19.50;1.00
21419;DHT22;10870;51.384;10.316;2022-08-03T02:15:10;19.50;1.00
21419;DHT22;10870;51.384;10.316;2022-08-03T02:17:11;19.50;1.00
21419;DHT22;10870;51.384;10.316;2022-08-03T02:19:16;19.50;1.00
21419;DHT22;10870;51.384;10.316;2022-08-03T02:21:20;19.50;1.00
21419;DHT22;10870;51.384;10.316;2022-08-03T02:23:24;19.40;1.00
21419;DHT22;10870;51.384;10.316;2022-08-03T02:25:27;19.40;1.00
21419;DHT22;10870;51.384;10.316;2022-08-03T02:27:29;19.40;1.00
21419;DHT22;10870;51.384;10.316;2022-08-03T02:29:32;19.40;1.00
21419;DHT22;10870;51.384;10.316;2022-08-03T02:31:34;19.40;1.00
21419;DHT22;10870;51.384;10.316;2022-08-03T02:33:38;19.30;1.00
21419;DHT22;10870;51.384;10.316;2022-08-03T02:35:43;19.30;1.00
21419;DHT22;10870;51.384;10.316;2022-08-03T02:37:45;19.30;1.00
21419;DHT22;10870;51.384;10.316;2022-08-03T02:39:49;19.30;1.00
21419;DHT22;10870;51.384;10.316;2022-08-03T02:41:56;19.20;1.00
21419;DHT22;10870;51.384;10.316;2022-08-03T02:44:06;19.20;1.00
21419;DHT22;10870;51.384;10.316;2022-08-03T02:46:08;19.20;1.00
21419;DHT22;10870;51.384;10.316;2022-08-03T02:48:10;19.20;1.00
21419;DHT22;10870;51.384;10.316;2022-08-03T02:50:11;19.20;1.00
21419;DHT22;10870;51.384;10.316;2022-08-03T02:52:14;19.20;1.00
21419;DHT22;10870;51.384;10.316;2022-08-03T02:54:21;19.10;1.00
21419;DHT22;10870;51.384;10.316;2022-08-03T02:56:25;19.10;1.00
21419;DHT22;10870;51.384;10.316;2022-08-03T02:58:32;19.10;1.00
21419;DHT22;10870;51.384;10.316;2022-08-03T03:00:33;19.10;1.00
21419;DHT22;10870;51.384;10.316;2022-08-03T03:02:36;19.10;1.00
21419;DHT22;10870;51.384;10.316;2022-08-03T03:04:39;19.10;1.00
21419;DHT22;10870;51.384;10.316;2022-08-03T03:06:40;19.10;1.00
21419;DHT22;10870;51.384;10.316;2022-08-03T03:08:42;19.10;1.00
21419;DHT22;10870;51.384;10.316;2022-08-03T03:10:48;19.10;1.00
21419;DHT22;10870;51.384;10.316;2022-08-03T03:12:49;19.10;1.00
21419;DHT22;10870;51.384;10.316;2022-08-03T03:14:53;19.10;1.00
21419;DHT22;10870;51.384;10.316;2022-08-03T03:16:54;19.10;1.00
21419;DHT22;10870;51.384;10.316;2022-08-03T03:18:55;19.10;1.00
21419;DHT22;10870;51.384;10.316;2022-08-03T03:20:56;19.10;1.00
21419;DHT22;10870;51.384;10.316;2022-08-03T03:22:58;19.10;1.00
21419;DHT22;10870;51.384;10.316;2022-08-03T03:25:02;19.10;1.00
21419;DHT22;10870;51.384;10.316;2022-08-03T03:27:07;19.00;99.90
21419;DHT22;10870;51.384;10.316;2022-08-03T03:29:08;19.00;99.90
21419;DHT22;10870;51.384;10.316;2022-08-03T03:31:12;19.00;99.90
21419;DHT22;10870;51.384;10.316;2022-08-03T03:33:15;19.00;99.90
21419;DHT22;10870;51.384;10.316;2022-08-03T03:35:16;19.00;99.90
21419;DHT22;10870;51.384;10.316;2022-08-03T03:37:17;19.00;99.90
21419;DHT22;10870;51.384;10.316;2022-08-03T03:39:20;19.00;99.90
21419;DHT22;10870;51.384;10.316;2022-08-03T03:41:21;19.00;99.90
21419;DHT22;10870;51.384;10.316;2022-08-03T03:43:22;19.00;99.90
21419;DHT22;10870;51.384;10.316;2022-08-03T03:45:23;19.00;1.00
21419;DHT22;10870;51.384;10.316;2022-08-03T03:47:27;19.00;1.00
21419;DHT22;10870;51.384;10.316;2022-08-03T03:49:28;19.00;1.00
21419;DHT22;10870;51.384;10.316;2022-08-03T03:51:31;19.00;1.00
21419;DHT22;10870;51.384;10.316;2022-08-03T03:53:32;18.90;1.00
21419;DHT22;10870;51.384;10.316;2022-08-03T03:55:36;18.90;1.00
21419;DHT22;10870;51.384;10.316;2022-08-03T03:57:37;18.90;1.00
21419;DHT22;10870;51.384;10.316;2022-08-03T03:59:41;18.90;1.00
21419;DHT22;10870;51.384;10.316;2022-08-03T04:01:42;18.90;1.00
21419;DHT22;10870;51.384;10.316;2022-08-03T04:03:43;18.90;1.00
21419;DHT22;10870;51.384;10.316;2022-08-03T04:05:44;18.90;99.90
21419;DHT22;10870;51.384;10.316;2022-08-03T04:08:07;19.00;1.00
21419;DHT22;10870;51.384;10.316;2022-08-03T04:10:30;19.00;99.90
21419;DHT22;10870;51.384;10.316;2022-08-03T04:12:51;19.00;99.90
21419;DHT22;10870;51.384;10.316;2022-08-03T04:14:54;18.90;99.90
21419;DHT22;10870;51.384;10.316;2022-08-03T04:17:02;18.90;1.00
21419;DHT22;10870;51.384;10.316;2022-08-03T04:19:06;18.90;99.90
21419;DHT22;10870;51.384;10.316;2022-08-03T04:21:08;18.90;99.90
21419;DHT22;10870;51.384;10.316;2022-08-03T04:23:09;18.90;99.90
21419;DHT22;10870;51.384;10.316;2022-08-03T04:25:13;18.90;99.90
21419;DHT22;10870;51.384;10.316;2022-08-03T04:27:20;18.90;99.90
21419;DHT22;10870;51.384;10.316;2022-08-03T04:29:22;18.90;99.90
21419;DHT22;10870;51.384;10.316;2022-08-03T04:31:26;18.90;99.90
21419;DHT22;10870;51.384;10.316;2022-08-03T04:33:32;19.00;99.90
21419;DHT22;10870;51.384;10.316;2022-08-03T04:35:33;19.00;99.90
21419;DHT22;10870;51.384;10.316;2022-08-03T04:37:41;19.00;1.00
21419;DHT22;10870;51.384;10.316;2022-08-03T04:39:48;19.00;1.00
21419;DHT22;10870;51.384;10.316;2022-08-03T04:41:54;19.00;1.00
21419;DHT22;10870;51.384;10.316;2022-08-03T04:43:57;19.00;1.00
21419;DHT22;10870;51.384;10.316;2022-08-03T04:45:58;19.00;1.00
21419;DHT22;10870;51.384;10.316;2022-08-03T04:48:04;19.10;1.00
21419;DHT22;10870;51.384;10.316;2022-08-03T04:50:09;19.10;1.00
21419;DHT22;10870;51.384;10.316;2022-08-03T04:52:09;19.10;1.00
21419;DHT22;10870;51.384;10.316;2022-08-03T04:54:19;19.20;1.00
21419;DHT22;10870;51.384;10.316;2022-08-03T04:56:23;19.30;1.00
21419;DHT22;10870;51.384;10.316;2022-08-03T04:58:23;19.30;1.00
21419;DHT22;10870;51.384;10.316;2022-08-03T05:00:27;19.40;1.00
21419;DHT22;10870;51.384;10.316;2022-08-03T05:02:35;19.50;1.00
21419;DHT22;10870;51.384;10.316;2022-08-03T05:04:39;19.50;99.90
21419;DHT22;10870;51.384;10.316;2022-08-03T05:06:45;19.60;99.90
21419;DHT22;10870;51.384;10.316;2022-08-03T05:09:07;19.70;99.90
21419;DHT22;10870;51.384;10.316;2022-08-03T05:11:08;19.70;99.90
21419;DHT22;10870;51.384;10.316;2022-08-03T05:13:09;19.80;99.90
21419;DHT22;10870;51.384;10.316;2022-08-03T05:15:15;19.90;99.90
21419;DHT22;10870;51.384;10.316;2022-08-03T05:17:18;19.90;99.90
21419;DHT22;10870;51.384;10.316;2022-08-03T05:19:22;20.00;99.90
21419;DHT22;10870;51.384;10.316;2022-08-03T05:21:23;20.10;99.90
21419;DHT22;10870;51.384;10.316;2022-08-03T05:23:30;20.10;1.00
21419;DHT22;10870;51.384;10.316;2022-08-03T05:25:30;20.20;1.00
21419;DHT22;10870;51.384;10.316;2022-08-03T05:27:33;20.30;1.00
21419;DHT22;10870;51.384;10.316;2022-08-03T05:29:39;20.40;1.00
21419;DHT22;10870;51.384;10.316;2022-08-03T05:31:40;20.50;1.00
21419;DHT22;10870;51.384;10.316;2022-08-03T05:33:45;20.60;1.00
21419;DHT22;10870;51.384;10.316;2022-08-03T05:35:48;20.60;1.00
21419;DHT22;10870;51.384;10.316;2022-08-03T05:37:49;20.70;1.00
21419;DHT22;10870;51.384;10.316;2022-08-03T05:39:50;20.80;1.00
21419;DHT22;10870;51.384;10.316;2022-08-03T05:41:54;20.80;99.90
21419;DHT22;10870;51.384;10.316;2022-08-03T05:43:55;20.90;99.90
21419;DHT22;10870;51.384;10.316;2022-08-03T05:45:59;20.90;99.90
21419;DHT22;10870;51.384;10.316;2022-08-03T05:48:00;21.00;99.90
21419;DHT22;10870;51.384;10.316;2022-08-03T05:50:01;21.10;99.90
21419;DHT22;10870;51.384;10.316;2022-08-03T05:52:03;21.10;99.90
21419;DHT22;10870;51.384;10.316;2022-08-03T05:54:07;21.10;99.90
21419;DHT22;10870;51.384;10.316;2022-08-03T05:56:35;21.20;99.90
21419;DHT22;10870;51.384;10.316;2022-08-03T05:58:36;21.20;99.90
21419;DHT22;10870;51.384;10.316;2022-08-03T06:00:59;21.30;99.90
21419;DHT22;10870;51.384;10.316;2022-08-03T06:03:09;21.40;99.90
21419;DHT22;10870;51.384;10.316;2022-08-03T06:05:16;21.50;99.90
21419;DHT22;10870;51.384;10.316;2022-08-03T06:07:21;21.50;99.90
21419;DHT22;10870;51.384;10.316;2022-08-03T06:09:30;21.50;99.90
21419;DHT22;10870;51.384;10.316;2022-08-03T06:11:34;21.60;99.90
21419;DHT22;10870;51.384;10.316;2022-08-03T06:16:07;21.80;99.90
21419;DHT22;10870;51.384;10.316;2022-08-03T06:18:17;21.90;99.90
21419;DHT22;10870;51.384;10.316;2022-08-03T06:20:48;21.90;99.90
21419;DHT22;10870;51.384;10.316;2022-08-03T06:22:59;22.10;53.30
21419;DHT22;10870;51.384;10.316;2022-08-03T06:25:07;22.10;1.00
21419;DHT22;10870;51.384;10.316;2022-08-03T06:27:19;22.20;1.00
21419;DHT22;10870;51.384;10.316;2022-08-03T06:29:24;22.30;1.00
21419;DHT22;10870;51.384;10.316;2022-08-03T06:31:28;22.20;1.00
21419;DHT22;10870;51.384;10.316;2022-08-03T06:33:39;22.40;1.00
21419;DHT22;10870;51.384;10.316;2022-08-03T07:00:11;23.50;1.00
21419;DHT22;10870;51.384;10.316;2022-08-03T07:02:13;23.80;1.00
21419;DHT22;10870;51.384;10.316;2022-08-03T07:04:17;23.70;99.90
21419;DHT22;10870;51.384;10.316;2022-08-03T07:06:21;23.80;99.90
21419;DHT22;10870;51.384;10.316;2022-08-03T07:11:31;23.90;1.00
21419;DHT22;10870;51.384;10.316;2022-08-03T07:19:40;24.50;1.00
21419;DHT22;10870;51.384;10.316;2022-08-03T07:22:07;24.30;1.00
21419;DHT22;10870;51.384;10.316;2022-08-03T07:24:33;24.60;1.00
21419;DHT22;10870;51.384;10.316;2022-08-03T07:26:53;24.60;1.00
21419;DHT22;10870;51.384;10.316;2022-08-03T07:29:06;24.70;1.00
21419;DHT22;10870;51.384;10.316;2022-08-03T07:31:58;24.40;1.00
21419;DHT22;10870;51.384;10.316;2022-08-03T07:34:12;25.00;1.00
21419;DHT22;10870;51.384;10.316;2022-08-03T07:36:51;24.90;99.90
21419;DHT22;10870;51.384;10.316;2022-08-03T07:38:58;25.10;99.90
21419;DHT22;10870;51.384;10.316;2022-08-03T07:43:55;25.30;99.90
21419;DHT22;10870;51.384;10.316;2022-08-03T07:46:08;25.20;31.00
21419;DHT22;10870;51.384;10.316;2022-08-03T07:57:13;25.80;1.00
21419;DHT22;10870;51.384;10.316;2022-08-03T07:59:27;25.80;1.00
21419;DHT22;10870;51.384;10.316;2022-08-03T08:01:43;25.80;1.00
21419;DHT22;10870;51.384;10.316;2022-08-03T08:03:58;26.00;1.00
21419;DHT22;10870;51.384;10.316;2022-08-03T08:06:09;26.10;1.00
21419;DHT22;10870;51.384;10.316;2022-08-03T08:08:11;26.20;1.00
21419;DHT22;10870;51.384;10.316;2022-08-03T08:10:14;26.20;1.00
21419;DHT22;10870;51.384;10.316;2022-08-03T08:12:21;26.30;1.00
21419;DHT22;10870;51.384;10.316;2022-08-03T08:14:24;26.30;1.00
21419;DHT22;10870;51.384;10.316;2022-08-03T08:16:41;26.40;99.90
21419;DHT22;10870;51.384;10.316;2022-08-03T08:19:09;26.40;99.90
21419;DHT22;10870;51.384;10.316;2022-08-03T08:21:12;26.40;99.90
21419;DHT22;10870;51.384;10.316;2022-08-03T08:23:13;26.40;99.90
21419;DHT22;10870;51.384;10.316;2022-08-03T08:25:14;26.60;99.90
21419;DHT22;10870;51.384;10.316;2022-08-03T08:27:15;26.70;99.90
21419;DHT22;10870;51.384;10.316;2022-08-03T08:29:16;27.00;99.90
21419;DHT22;10870;51.384;10.316;2022-08-03T08:31:17;26.80;99.90
21419;DHT22;10870;51.384;10.316;2022-08-03T08:33:24;26.70;99.90
21419;DHT22;10870;51.384;10.316;2022-08-03T08:35:30;27.00;99.90
21419;DHT22;10870;51.384;10.316;2022-08-03T08:37:34;27.00;99.90
21419;DHT22;10870;51.384;10.316;2022-08-03T08:39:35;27.10;99.90
21419;DHT22;10870;51.384;10.316;2022-08-03T08:41:39;27.30;99.90
21419;DHT22;10870;51.384;10.316;2022-08-03T08:43:50;27.20;99.90
21419;DHT22;10870;51.384;10.316;2022-08-03T08:46:01;27.20;99.90
21419;DHT22;10870;51.384;10.316;2022-08-03T08:48:21;27.30;99.90
21419;DHT22;10870;51.384;10.316;2022-08-03T08:55:11;27.60;99.90
21419;DHT22;10870;51.384;10.316;2022-08-03T08:57:23;27.50;99.90
21419;DHT22;10870;51.384;10.316;2022-08-03T08:59:29;27.50;99.90
21419;DHT22;10870;51.384;10.316;2022-08-03T09:01:59;27.60;99.90
21419;DHT22;10870;51.384;10.316;2022-08-03T09:04:05;27.60;99.90
21419;DHT22;10870;51.384;10.316;2022-08-03T09:06:34;27.70;99.90
21419;DHT22;10870;51.384;10.316;2022-08-03T09:08:41;27.90;99.90
21419;DHT22;10870;51.384;10.316;2022-08-03T09:10:43;27.70;99.90
21419;DHT22;10870;51.384;10.316;2022-08-03T09:12:47;27.70;99.90
21419;DHT22;10870;51.384;10.316;2022-08-03T09:15:18;27.80;99.90
21419;DHT22;10870;51.384;10.316;2022-08-03T09:17:20;27.90;99.90
21419;DHT22;10870;51.384;10.316;2022-08-03T09:19:21;27.90;1.00
21419;DHT22;10870;51.384;10.316;2022-08-03T09:21:25;27.90;1.00
21419;DHT22;10870;51.384;10.316;2022-08-03T09:25:45;28.10;99.90
21419;DHT22;10870;51.384;10.316;2022-08-03T09:28:15;28.00;99.90
21419;DHT22;10870;51.384;10.316;2022-08-03T09:30:17;28.20;99.90
21419;DHT22;10870;51.384;10.316;2022-08-03T09:32:22;28.20;99.90
21419;DHT22;10870;51.384;10.316;2022-08-03T09:34:26;28.20;99.90
21419;DHT22;10870;51.384;10.316;2022-08-03T09:39:06;28.20;99.90
21419;DHT22;10870;51.384;10.316;2022-08-03T09:41:16;28.40;99.90
21419;DHT22;10870;51.384;10.316;2022-08-03T09:43:22;28.30;99.90
21419;DHT22;10870;51.384;10.316;2022-08-03T09:45:28;28.30;99.90
21419;DHT22;10870;51.384;10.316;2022-08-03T10:08:13;28.80;1.00
21419;DHT22;10870;51.384;10.316;2022-08-03T10:10:15;28.80;99.90
21419;DHT22;10870;51.384;10.316;2022-08-03T10:12:17;28.90;99.90
21419;DHT22;10870;51.384;10.316;2022-08-03T10:14:20;28.90;99.90
21419;DHT22;10870;51.384;10.316;2022-08-03T10:16:25;28.80;99.90
21419;DHT22;10870;51.384;10.316;2022-08-03T10:18:31;28.90;99.90
21419;DHT22;10870;51.384;10.316;2022-08-03T10:20:45;29.00;1.00
21419;DHT22;10870;51.384;10.316;2022-08-03T10:22:54;29.10;1.00
21419;DHT22;10870;51.384;10.316;2022-08-03T10:25:05;29.10;1.00
21419;DHT22;10870;51.384;10.316;2022-08-03T10:27:06;29.20;1.00
21419;DHT22;10870;51.384;10.316;2022-08-03T10:29:16;29.10;1.00
21419;DHT22;10870;51.384;10.316;2022-08-03T10:31:19;29.30;1.00
21419;DHT22;10870;51.384;10.316;2022-08-03T10:33:29;29.30;1.00
21419;DHT22;10870;51.384;10.316;2022-08-03T10:35:38;29.60;1.00
21419;DHT22;10870;51.384;10.316;2022-08-03T10:39:50;29.50;1.00
21419;DHT22;10870;51.384;10.316;2022-08-03T10:41:56;29.40;1.00
21419;DHT22;10870;51.384;10.316;2022-08-03T10:44:04;29.40;1.00
21419;DHT22;10870;51.384;10.316;2022-08-03T10:46:11;29.30;1.00
21419;DHT22;10870;51.384;10.316;2022-08-03T10:48:19;29.60;1.00
21419;DHT22;10870;51.384;10.316;2022-08-03T10:50:28;29.40;1.00
21419;DHT22;10870;51.384;10.316;2022-08-03T10:52:32;29.40;1.00
21419;DHT22;10870;51.384;10.316;2022-08-03T10:54:43;29.40;1.00
21419;DHT22;10870;51.384;10.316;2022-08-03T10:57:02;29.70;1.00
21419;DHT22;10870;51.384;10.316;2022-08-03T11:01:58;29.50;1.00
21419;DHT22;10870;51.384;10.316;2022-08-03T11:06:26;29.80;1.00
21419;DHT22;10870;51.384;10.316;2022-08-03T11:08:29;29.80;1.00
21419;DHT22;10870;51.384;10.316;2022-08-03T11:10:33;29.90;1.00
21419;DHT22;10870;51.384;10.316;2022-08-03T11:12:40;29.90;1.00
21419;DHT22;10870;51.384;10.316;2022-08-03T11:14:47;29.90;1.00
21419;DHT22;10870;51.384;10.316;2022-08-03T11:17:05;29.90;1.00
21419;DHT22;10870;51.384;10.316;2022-08-03T11:19:10;29.90;1.00
21419;DHT22;10870;51.384;10.316;2022-08-03T11:21:14;30.00;1.00
21419;DHT22;10870;51.384;10.316;2022-08-03T11:23:19;30.00;1.00
21419;DHT22;10870;51.384;10.316;2022-08-03T11:25:20;30.00;1.00
21419;DHT22;10870;51.384;10.316;2022-08-03T11:27:27;30.10;1.00
21419;DHT22;10870;51.384;10.316;2022-08-03T11:29:31;30.20;1.00
21419;DHT22;10870;51.384;10.316;2022-08-03T11:33:36;30.20;1.00
21419;DHT22;10870;51.384;10.316;2022-08-03T11:35:56;30.20;1.00
21419;DHT22;10870;51.384;10.316;2022-08-03T11:38:04;30.20;1.00
21419;DHT22;10870;51.384;10.316;2022-08-03T11:40:13;30.00;1.00
21419;DHT22;10870;51.384;10.316;2022-08-03T11:44:43;30.20;1.00
21419;DHT22;10870;51.384;10.316;2022-08-03T11:46:48;30.30;1.00
21419;DHT22;10870;51.384;10.316;2022-08-03T11:48:49;30.40;1.00
21419;DHT22;10870;51.384;10.316;2022-08-03T11:51:18;30.50;1.00
21419;DHT22;10870;51.384;10.316;2022-08-03T11:53:21;30.60;1.00
21419;DHT22;10870;51.384;10.316;2022-08-03T11:55:25;30.70;1.00
21419;DHT22;10870;51.384;10.316;2022-08-03T11:57:30;30.70;1.00
21419;DHT22;10870;51.384;10.316;2022-08-03T11:59:49;30.80;1.00
21419;DHT22;10870;51.384;10.316;2022-08-03T12:01:53;30.90;1.00
21419;DHT22;10870;51.384;10.316;2022-08-03T12:04:15;31.00;1.00
21419;DHT22;10870;51.384;10.316;2022-08-03T12:06:17;30.90;1.00
21419;DHT22;10870;51.384;10.316;2022-08-03T12:08:33;31.00;1.00
21419;DHT22;10870;51.384;10.316;2022-08-03T12:10:45;31.10;1.00
21419;DHT22;10870;51.384;10.316;2022-08-03T12:12:53;31.30;1.00
21419;DHT22;10870;51.384;10.316;2022-08-03T12:14:54;31.30;1.00
21419;DHT22;10870;51.384;10.316;2022-08-03T12:16:55;31.40;1.00
21419;DHT22;10870;51.384;10.316;2022-08-03T12:19:04;31.40;1.00
21419;DHT22;10870;51.384;10.316;2022-08-03T12:21:09;31.30;1.00
21419;DHT22;10870;51.384;10.316;2022-08-03T12:23:14;31.30;1.00
21419;DHT22;10870;51.384;10.316;2022-08-03T12:27:24;31.30;1.00
21419;DHT22;10870;51.384;10.316;2022-08-03T12:29:29;31.40;1.00
21419;DHT22;10870;51.384;10.316;2022-08-03T12:31:30;31.40;1.00
21419;DHT22;10870;51.384;10.316;2022-08-03T12:33:31;31.40;1.00
21419;DHT22;10870;51.384;10.316;2022-08-03T12:35:38;31.60;1.00
21419;DHT22;10870;51.384;10.316;2022-08-03T12:37:41;31.60;1.00
21419;DHT22;10870;51.384;10.316;2022-08-03T12:39:51;31.60;1.00
21419;DHT22;10870;51.384;10.316;2022-08-03T12:41:55;31.50;1.00
21419;DHT22;10870;51.384;10.316;2022-08-03T12:43:56;31.50;1.00
21419;DHT22;10870;51.384;10.316;2022-08-03T12:46:11;31.60;1.00
21419;DHT22;10870;51.384;10.316;2022-08-03T12:48:13;31.60;1.00
21419;DHT22;10870;51.384;10.316;2022-08-03T12:52:45;31.60;1.00
21419;DHT22;10870;51.384;10.316;2022-08-03T12:54:58;31.60;1.00
21419;DHT22;10870;51.384;10.316;2022-08-03T12:57:02;31.60;1.00
21419;DHT22;10870;51.384;10.316;2022-08-03T12:59:25;31.60;1.00
21419;DHT22;10870;51.384;10.316;2022-08-03T13:01:27;31.60;1.00
21419;DHT22;10870;51.384;10.316;2022-08-03T13:03:45;31.60;1.00
21419;DHT22;10870;51.384;10.316;2022-08-03T13:05:48;31.50;1.00
21419;DHT22;10870;51.384;10.316;2022-08-03T13:07:49;31.60;1.00
21419;DHT22;10870;51.384;10.316;2022-08-03T13:09:51;31.70;1.00
21419;DHT22;10870;51.384;10.316;2022-08-03T13:12:11;31.70;1.00
21419;DHT22;10870;51.384;10.316;2022-08-03T13:14:18;31.80;1.00
21419;DHT22;10870;51.384;10.316;2022-08-03T13:16:19;32.00;1.00
21419;DHT22;10870;51.384;10.316;2022-08-03T13:18:21;32.10;1.00
21419;DHT22;10870;51.384;10.316;2022-08-03T13:20:25;32.20;1.00
21419;DHT22;10870;51.384;10.316;2022-08-03T13:22:26;32.30;1.00
21419;DHT22;10870;51.384;10.316;2022-08-03T13:24:30;32.30;1.00
21419;DHT22;10870;51.384;10.316;2022-08-03T13:26:32;32.40;1.00
21419;DHT22;10870;51.384;10.316;2022-08-03T13:28:32;32.40;1.00
21419;DHT22;10870;51.384;10.316;2022-08-03T13:30:36;32.30;1.00
21419;DHT22;10870;51.384;10.316;2022-08-03T13:32:37;32.30;1.00
21419;DHT22;10870;51.384;10.316;2022-08-03T13:34:38;32.20;1.00
21419;DHT22;10870;51.384;10.316;2022-08-03T13:36:41;32.20;1.00
21419;DHT22;10870;51.384;10.316;2022-08-03T13:38:48;32.20;1.00
21419;DHT22;10870;51.384;10.316;2022-08-03T13:40:59;32.30;1.00
21419;DHT22;10870;51.384;10.316;2022-08-03T13:43:02;32.10;1.00
21419;DHT22;10870;51.384;10.316;2022-08-03T13:45:06;32.00;1.00
21419;DHT22;10870;51.384;10.316;2022-08-03T13:47:11;32.00;1.00
21419;DHT22;10870;51.384;10.316;2022-08-03T13:49:14;32.10;1.00
21419;DHT22;10870;51.384;10.316;2022-08-03T13:51:15;32.30;1.00
21419;DHT22;10870;51.384;10.316;2022-08-03T13:53:15;32.40;1.00
21419;DHT22;10870;51.384;10.316;2022-08-03T13:55:18;32.70;1.00
21419;DHT22;10870;51.384;10.316;2022-08-03T13:57:21;32.90;1.00
21419;DHT22;10870;51.384;10.316;2022-08-03T13:59:25;33.00;1.00
21419;DHT22;10870;51.384;10.316;2022-08-03T14:01:26;33.10;1.00
21419;DHT22;10870;51.384;10.316;2022-08-03T14:03:27;33.00;1.00
21419;DHT22;10870;51.384;10.316;2022-08-03T14:05:27;33.10;1.00
21419;DHT22;10870;51.384;10.316;2022-08-03T14:07:29;33.10;1.00
21419;DHT22;10870;51.384;10.316;2022-08-03T14:09:32;33.00;1.00
21419;DHT22;10870;51.384;10.316;2022-08-03T14:11:33;33.10;1.00
21419;DHT22;10870;51.384;10.316;2022-08-03T14:13:34;33.20;1.00
21419;DHT22;10870;51.384;10.316;2022-08-03T14:15:35;33.30;1.00
21419;DHT22;10870;51.384;10.316;2022-08-03T14:17:38;33.20;1.00
21419;DHT22;10870;51.384;10.316;2022-08-03T14:19:38;33.20;1.00
21419;DHT22;10870;51.384;10.316;2022-08-03T14:21:39;33.00;1.00
21419;DHT22;10870;51.384;10.316;2022-08-03T14:23:40;32.70;1.00
21419;DHT22;10870;51.384;10.316;2022-08-03T14:25:41;32.80;1.00
21419;DHT22;10870;51.384;10.316;2022-08-03T14:27:44;33.00;1.00
21419;DHT22;10870;51.384;10.316;2022-08-03T14:29:45;33.20;1.00
21419;DHT22;10870;51.384;10.316;2022-08-03T14:31:46;33.30;1.00
21419;DHT22;10870;51.384;10.316;2022-08-03T14:33:47;33.30;1.00
21419;DHT22;10870;51.384;10.316;2022-08-03T14:35:47;33.20;1.00
21419;DHT22;10870;51.384;10.316;2022-08-03T14:37:50;33.20;1.00
21419;DHT22;10870;51.384;10.316;2022-08-03T14:39:54;33.20;1.00
21419;DHT22;10870;51.384;10.316;2022-08-03T14:41:57;33.20;1.00
21419;DHT22;10870;51.384;10.316;2022-08-03T14:43:58;33.30;1.00
21419;DHT22;10870;51.384;10.316;2022-08-03T14:46:01;33.50;1.00
21419;DHT22;10870;51.384;10.316;2022-08-03T14:48:02;33.50;1.00
21419;DHT22;10870;51.384;10.316;2022-08-03T14:50:05;33.60;1.00
21419;DHT22;10870;51.384;10.316;2022-08-03T14:52:18;33.70;1.00
21419;DHT22;10870;51.384;10.316;2022-08-03T14:54:20;33.80;1.00
21419;DHT22;10870;51.384;10.316;2022-08-03T14:56:23;34.00;1.00
21419;DHT22;10870;51.384;10.316;2022-08-03T14:58:31;34.10;1.00
21419;DHT22;10870;51.384;10.316;2022-08-03T15:00:32;34.20;1.00